sensor_id;sensor_type;location;lat;lon;timestamp;P1;durP1;ratioP1;P2;durP2;ratioP2
54263;SDS011;40178;53.042;6.406;2023-02-28T00:00:20;6.70;;;2.92;;
54263;SDS011;40178;53.042;6.406;2023-02-28T00:02:47;6.07;;;3.00;;
54263;SDS011;40178;53.042;6.406;2023-02-28T00:05:13;6.53;;;3.15;;
54263;SDS011;40178;53.042;6.406;2023-02-28T00:07:41;9.13;;;3.30;;
54263;SDS011;40178;53.042;6.406;2023-02-28T00:10:08;8.07;;;3.35;;
54263;SDS011;40178;53.042;6.406;2023-02-28T00:12:36;10.18;;;3.80;;
54263;SDS011;40178;53.042;6.406;2023-02-28T00:15:05;8.95;;;3.50;;
54263;SDS011;40178;53.042;6.406;2023-02-28T00:17:32;9.93;;;3.80;;
54263;SDS011;40178;53.042;6.406;2023-02-28T00:19:57;10.23;;;4.05;;
54263;SDS011;40178;53.042;6.406;2023-02-28T00:22:37;9.77;;;4.10;;
54263;SDS011;40178;53.042;6.406;2023-02-28T00:25:04;8.52;;;3.90;;
54263;SDS011;40178;53.042;6.406;2023-02-28T00:27:31;9.82;;;4.07;;
54263;SDS011;40178;53.042;6.406;2023-02-28T00:29:57;7.40;;;3.40;;
54263;SDS011;40178;53.042;6.406;2023-02-28T00:32:23;11.05;;;4.28;;
54263;SDS011;40178;53.042;6.406;2023-02-28T00:34:49;8.40;;;3.67;;
54263;SDS011;40178;53.042;6.406;2023-02-28T00:37:14;7.82;;;3.90;;
54263;SDS011;40178;53.042;6.406;2023-02-28T00:39:40;11.10;;;3.90;;
54263;SDS011;40178;53.042;6.406;2023-02-28T00:42:06;11.52;;;4.07;;
54263;SDS011;40178;53.042;6.406;2023-02-28T00:44:32;10.38;;;4.05;;
54263;SDS011;40178;53.042;6.406;2023-02-28T00:46:58;10.77;;;4.00;;
54263;SDS011;40178;53.042;6.406;2023-02-28T00:49:25;7.55;;;3.47;;
54263;SDS011;40178;53.042;6.406;2023-02-28T00:51:52;8.10;;;3.17;;
54263;SDS011;40178;53.042;6.406;2023-02-28T00:54:19;8.90;;;3.53;;
54263;SDS011;40178;53.042;6.406;2023-02-28T00:56:45;7.18;;;3.90;;
54263;SDS011;40178;53.042;6.406;2023-02-28T00:59:11;9.32;;;3.63;;
54263;SDS011;40178;53.042;6.406;2023-02-28T01:01:38;10.90;;;4.03;;
54263;SDS011;40178;53.042;6.406;2023-02-28T01:04:04;9.27;;;4.40;;
54263;SDS011;40178;53.042;6.406;2023-02-28T01:06:30;10.15;;;3.85;;
54263;SDS011;40178;53.042;6.406;2023-02-28T01:08:56;7.38;;;4.03;;
54263;SDS011;40178;53.042;6.406;2023-02-28T01:11:22;11.15;;;4.65;;
54263;SDS011;40178;53.042;6.406;2023-02-28T01:13:48;8.05;;;3.97;;
54263;SDS011;40178;53.042;6.406;2023-02-28T01:16:13;10.02;;;4.90;;
54263;SDS011;40178;53.042;6.406;2023-02-28T01:18:39;8.95;;;4.60;;
54263;SDS011;40178;53.042;6.406;2023-02-28T01:21:09;12.85;;;5.13;;
54263;SDS011;40178;53.042;6.406;2023-02-28T01:23:37;11.15;;;4.60;;
54263;SDS011;40178;53.042;6.406;2023-02-28T01:26:08;12.77;;;5.10;;
54263;SDS011;40178;53.042;6.406;2023-02-28T01:28:41;11.00;;;5.57;;
54263;SDS011;40178;53.042;6.406;2023-02-28T01:31:07;11.98;;;5.13;;
54263;SDS011;40178;53.042;6.406;2023-02-28T01:33:33;10.95;;;4.97;;
54263;SDS011;40178;53.042;6.406;2023-02-28T01:36:07;10.13;;;4.55;;
54263;SDS011;40178;53.042;6.406;2023-02-28T01:38:40;10.55;;;4.70;;
54263;SDS011;40178;53.042;6.406;2023-02-28T01:41:06;12.75;;;5.65;;
54263;SDS011;40178;53.042;6.406;2023-02-28T01:46:30;9.63;;;4.65;;
54263;SDS011;40178;53.042;6.406;2023-02-28T01:49:00;9.48;;;5.10;;
54263;SDS011;40178;53.042;6.406;2023-02-28T01:51:35;9.30;;;4.93;;
54263;SDS011;40178;53.042;6.406;2023-02-28T01:54:12;7.68;;;4.07;;
54263;SDS011;40178;53.042;6.406;2023-02-28T01:56:43;9.25;;;4.45;;
54263;SDS011;40178;53.042;6.406;2023-02-28T01:59:13;8.38;;;4.40;;
54263;SDS011;40178;53.042;6.406;2023-02-28T02:01:46;9.73;;;5.13;;
54263;SDS011;40178;53.042;6.406;2023-02-28T02:04:11;11.00;;;5.30;;
54263;SDS011;40178;53.042;6.406;2023-02-28T02:06:38;17.02;;;5.75;;
54263;SDS011;40178;53.042;6.406;2023-02-28T02:09:08;14.40;;;6.60;;
54263;SDS011;40178;53.042;6.406;2023-02-28T02:11:33;14.68;;;6.28;;
54263;SDS011;40178;53.042;6.406;2023-02-28T02:14:05;11.68;;;6.30;;
54263;SDS011;40178;53.042;6.406;2023-02-28T02:20:00;11.68;;;5.72;;
54263;SDS011;40178;53.042;6.406;2023-02-28T02:31:14;10.85;;;6.47;;
54263;SDS011;40178;53.042;6.406;2023-02-28T02:36:37;17.33;;;7.15;;
54263;SDS011;40178;53.042;6.406;2023-02-28T02:39:19;10.85;;;7.05;;
54263;SDS011;40178;53.042;6.406;2023-02-28T02:42:00;11.20;;;6.50;;
54263;SDS011;40178;53.042;6.406;2023-02-28T02:44:31;17.20;;;7.65;;
54263;SDS011;40178;53.042;6.406;2023-02-28T02:47:15;12.63;;;6.47;;
54263;SDS011;40178;53.042;6.406;2023-02-28T02:49:52;11.65;;;7.68;;
54263;SDS011;40178;53.042;6.406;2023-02-28T02:52:21;13.75;;;7.38;;
54263;SDS011;40178;53.042;6.406;2023-02-28T02:54:54;13.70;;;7.18;;
54263;SDS011;40178;53.042;6.406;2023-02-28T02:58:08;14.80;;;7.93;;
54263;SDS011;40178;53.042;6.406;2023-02-28T03:00:11;14.93;;;8.73;;
54263;SDS011;40178;53.042;6.406;2023-02-28T03:02:39;15.23;;;7.70;;
54263;SDS011;40178;53.042;6.406;2023-02-28T03:05:07;13.65;;;7.70;;
54263;SDS011;40178;53.042;6.406;2023-02-28T03:07:40;14.33;;;8.17;;
54263;SDS011;40178;53.042;6.406;2023-02-28T03:10:25;14.40;;;7.55;;
54263;SDS011;40178;53.042;6.406;2023-02-28T03:12:56;13.38;;;6.70;;
54263;SDS011;40178;53.042;6.406;2023-02-28T03:15:40;11.13;;;7.07;;
54263;SDS011;40178;53.042;6.406;2023-02-28T03:23:58;13.40;;;7.10;;
54263;SDS011;40178;53.042;6.406;2023-02-28T03:26:29;13.93;;;6.82;;
54263;SDS011;40178;53.042;6.406;2023-02-28T03:29:02;14.68;;;7.35;;
54263;SDS011;40178;53.042;6.406;2023-02-28T03:31:49;14.43;;;6.80;;
54263;SDS011;40178;53.042;6.406;2023-02-28T03:34:36;11.80;;;6.20;;
54263;SDS011;40178;53.042;6.406;2023-02-28T03:37:10;13.30;;;6.40;;
54263;SDS011;40178;53.042;6.406;2023-02-28T03:39:44;13.88;;;6.60;;
54263;SDS011;40178;53.042;6.406;2023-02-28T03:42:15;13.03;;;5.60;;
54263;SDS011;40178;53.042;6.406;2023-02-28T03:45:32;15.77;;;6.50;;
54263;SDS011;40178;53.042;6.406;2023-02-28T03:50:14;11.35;;;5.95;;
54263;SDS011;40178;53.042;6.406;2023-02-28T03:52:47;11.48;;;5.38;;
54263;SDS011;40178;53.042;6.406;2023-02-28T03:55:28;9.93;;;4.70;;
54263;SDS011;40178;53.042;6.406;2023-02-28T03:58:05;10.70;;;5.07;;
54263;SDS011;40178;53.042;6.406;2023-02-28T04:00:46;10.95;;;5.13;;
54263;SDS011;40178;53.042;6.406;2023-02-28T04:03:15;16.23;;;5.43;;
54263;SDS011;40178;53.042;6.406;2023-02-28T04:05:46;10.32;;;4.95;;
54263;SDS011;40178;53.042;6.406;2023-02-28T04:08:18;10.93;;;5.13;;
54263;SDS011;40178;53.042;6.406;2023-02-28T04:10:44;10.90;;;4.82;;
54263;SDS011;40178;53.042;6.406;2023-02-28T04:13:15;13.20;;;5.63;;
54263;SDS011;40178;53.042;6.406;2023-02-28T04:15:41;12.57;;;5.13;;
54263;SDS011;40178;53.042;6.406;2023-02-28T04:18:07;12.02;;;5.25;;
54263;SDS011;40178;53.042;6.406;2023-02-28T04:20:33;11.60;;;5.18;;
54263;SDS011;40178;53.042;6.406;2023-02-28T04:22:58;11.77;;;5.07;;
54263;SDS011;40178;53.042;6.406;2023-02-28T04:25:24;12.68;;;5.28;;
54263;SDS011;40178;53.042;6.406;2023-02-28T04:27:50;13.75;;;5.60;;
54263;SDS011;40178;53.042;6.406;2023-02-28T04:30:15;13.30;;;5.10;;
54263;SDS011;40178;53.042;6.406;2023-02-28T04:32:41;11.30;;;4.90;;
54263;SDS011;40178;53.042;6.406;2023-02-28T04:35:07;11.88;;;5.40;;
54263;SDS011;40178;53.042;6.406;2023-02-28T04:37:33;13.35;;;5.22;;
54263;SDS011;40178;53.042;6.406;2023-02-28T04:39:59;14.40;;;5.70;;
54263;SDS011;40178;53.042;6.406;2023-02-28T04:42:26;15.50;;;5.85;;
54263;SDS011;40178;53.042;6.406;2023-02-28T04:44:51;13.77;;;5.90;;
54263;SDS011;40178;53.042;6.406;2023-02-28T04:47:17;14.82;;;5.90;;
54263;SDS011;40178;53.042;6.406;2023-02-28T04:49:42;12.55;;;6.18;;
54263;SDS011;40178;53.042;6.406;2023-02-28T04:52:08;11.95;;;5.57;;
54263;SDS011;40178;53.042;6.406;2023-02-28T04:54:35;12.85;;;6.10;;
54263;SDS011;40178;53.042;6.406;2023-02-28T04:57:00;12.80;;;6.57;;
54263;SDS011;40178;53.042;6.406;2023-02-28T04:59:27;15.70;;;7.00;;
54263;SDS011;40178;53.042;6.406;2023-02-28T05:01:52;15.32;;;6.90;;
54263;SDS011;40178;53.042;6.406;2023-02-28T05:04:18;12.60;;;6.57;;
54263;SDS011;40178;53.042;6.406;2023-02-28T05:06:44;17.48;;;7.07;;
54263;SDS011;40178;53.042;6.406;2023-02-28T05:09:09;13.88;;;7.55;;
54263;SDS011;40178;53.042;6.406;2023-02-28T05:11:38;16.63;;;7.63;;
54263;SDS011;40178;53.042;6.406;2023-02-28T05:14:06;14.35;;;7.32;;
54263;SDS011;40178;53.042;6.406;2023-02-28T05:16:34;17.48;;;7.70;;
54263;SDS011;40178;53.042;6.406;2023-02-28T05:19:00;15.48;;;7.80;;
54263;SDS011;40178;53.042;6.406;2023-02-28T05:21:33;17.30;;;8.05;;
54263;SDS011;40178;53.042;6.406;2023-02-28T05:24:02;17.08;;;8.32;;
54263;SDS011;40178;53.042;6.406;2023-02-28T05:26:35;13.98;;;7.88;;
54263;SDS011;40178;53.042;6.406;2023-02-28T05:29:02;15.90;;;7.80;;
54263;SDS011;40178;53.042;6.406;2023-02-28T05:31:27;15.70;;;8.02;;
54263;SDS011;40178;53.042;6.406;2023-02-28T05:33:53;17.17;;;8.90;;
54263;SDS011;40178;53.042;6.406;2023-02-28T05:36:19;16.65;;;8.80;;
54263;SDS011;40178;53.042;6.406;2023-02-28T05:38:46;19.10;;;10.30;;
54263;SDS011;40178;53.042;6.406;2023-02-28T05:41:13;17.52;;;9.35;;
54263;SDS011;40178;53.042;6.406;2023-02-28T05:43:38;18.67;;;9.35;;
54263;SDS011;40178;53.042;6.406;2023-02-28T05:46:04;21.83;;;10.35;;
54263;SDS011;40178;53.042;6.406;2023-02-28T05:48:31;22.30;;;10.00;;
54263;SDS011;40178;53.042;6.406;2023-02-28T05:50:58;18.42;;;9.55;;
54263;SDS011;40178;53.042;6.406;2023-02-28T05:53:24;20.23;;;9.70;;
54263;SDS011;40178;53.042;6.406;2023-02-28T05:55:49;18.27;;;9.93;;
54263;SDS011;40178;53.042;6.406;2023-02-28T05:58:15;21.05;;;10.68;;
54263;SDS011;40178;53.042;6.406;2023-02-28T06:00:40;18.02;;;8.90;;
54263;SDS011;40178;53.042;6.406;2023-02-28T06:03:06;18.45;;;9.32;;
54263;SDS011;40178;53.042;6.406;2023-02-28T06:05:31;17.50;;;9.68;;
54263;SDS011;40178;53.042;6.406;2023-02-28T06:07:58;17.27;;;9.45;;
54263;SDS011;40178;53.042;6.406;2023-02-28T06:10:23;16.85;;;8.88;;
54263;SDS011;40178;53.042;6.406;2023-02-28T06:12:49;20.73;;;9.30;;
54263;SDS011;40178;53.042;6.406;2023-02-28T06:15:15;19.27;;;9.05;;
54263;SDS011;40178;53.042;6.406;2023-02-28T06:17:42;16.88;;;8.88;;
54263;SDS011;40178;53.042;6.406;2023-02-28T06:20:08;20.38;;;11.32;;
54263;SDS011;40178;53.042;6.406;2023-02-28T06:22:37;20.48;;;9.50;;
54263;SDS011;40178;53.042;6.406;2023-02-28T06:25:04;22.00;;;9.85;;
54263;SDS011;40178;53.042;6.406;2023-02-28T06:27:31;19.85;;;9.98;;
54263;SDS011;40178;53.042;6.406;2023-02-28T06:29:57;16.30;;;8.57;;
54263;SDS011;40178;53.042;6.406;2023-02-28T06:32:22;17.48;;;7.75;;
54263;SDS011;40178;53.042;6.406;2023-02-28T06:34:48;16.73;;;8.40;;
54263;SDS011;40178;53.042;6.406;2023-02-28T06:37:13;18.65;;;7.93;;
54263;SDS011;40178;53.042;6.406;2023-02-28T06:39:39;14.23;;;6.88;;
54263;SDS011;40178;53.042;6.406;2023-02-28T06:42:05;15.32;;;6.72;;
54263;SDS011;40178;53.042;6.406;2023-02-28T06:44:30;18.27;;;7.65;;
54263;SDS011;40178;53.042;6.406;2023-02-28T06:47:00;17.30;;;7.95;;
54263;SDS011;40178;53.042;6.406;2023-02-28T06:49:33;15.55;;;7.68;;
54263;SDS011;40178;53.042;6.406;2023-02-28T06:51:59;17.30;;;8.52;;
54263;SDS011;40178;53.042;6.406;2023-02-28T06:54:25;18.67;;;7.78;;
54263;SDS011;40178;53.042;6.406;2023-02-28T06:56:52;16.67;;;8.13;;
54263;SDS011;40178;53.042;6.406;2023-02-28T06:59:19;17.35;;;7.65;;
54263;SDS011;40178;53.042;6.406;2023-02-28T07:01:45;16.17;;;7.60;;
54263;SDS011;40178;53.042;6.406;2023-02-28T07:04:11;16.55;;;8.32;;
54263;SDS011;40178;53.042;6.406;2023-02-28T07:06:38;18.33;;;7.60;;
54263;SDS011;40178;53.042;6.406;2023-02-28T07:09:04;18.02;;;8.02;;
54263;SDS011;40178;53.042;6.406;2023-02-28T07:11:30;15.73;;;8.10;;
54263;SDS011;40178;53.042;6.406;2023-02-28T07:13:56;16.92;;;7.30;;
54263;SDS011;40178;53.042;6.406;2023-02-28T07:16:22;18.08;;;8.05;;
54263;SDS011;40178;53.042;6.406;2023-02-28T07:18:49;15.45;;;7.75;;
54263;SDS011;40178;53.042;6.406;2023-02-28T07:21:17;16.90;;;8.15;;
54263;SDS011;40178;53.042;6.406;2023-02-28T07:23:42;17.00;;;8.43;;
54263;SDS011;40178;53.042;6.406;2023-02-28T07:26:10;17.30;;;8.07;;
54263;SDS011;40178;53.042;6.406;2023-02-28T07:28:40;14.48;;;7.32;;
54263;SDS011;40178;53.042;6.406;2023-02-28T07:31:10;15.85;;;6.85;;
54263;SDS011;40178;53.042;6.406;2023-02-28T07:33:37;16.80;;;7.68;;
54263;SDS011;40178;53.042;6.406;2023-02-28T07:36:04;15.95;;;6.90;;
54263;SDS011;40178;53.042;6.406;2023-02-28T07:38:35;16.00;;;7.85;;
54263;SDS011;40178;53.042;6.406;2023-02-28T07:41:02;16.75;;;7.65;;
54263;SDS011;40178;53.042;6.406;2023-02-28T07:43:31;16.17;;;7.97;;
54263;SDS011;40178;53.042;6.406;2023-02-28T07:46:04;16.90;;;7.25;;
54263;SDS011;40178;53.042;6.406;2023-02-28T07:48:34;17.10;;;7.57;;
54263;SDS011;40178;53.042;6.406;2023-02-28T07:51:00;16.17;;;7.47;;
54263;SDS011;40178;53.042;6.406;2023-02-28T07:53:26;16.38;;;7.93;;
54263;SDS011;40178;53.042;6.406;2023-02-28T07:55:56;14.93;;;6.97;;
54263;SDS011;40178;53.042;6.406;2023-02-28T07:58:23;16.08;;;7.25;;
54263;SDS011;40178;53.042;6.406;2023-02-28T08:00:49;14.57;;;7.63;;
54263;SDS011;40178;53.042;6.406;2023-02-28T08:03:15;16.25;;;8.23;;
54263;SDS011;40178;53.042;6.406;2023-02-28T08:05:45;15.20;;;8.55;;
54263;SDS011;40178;53.042;6.406;2023-02-28T08:08:11;13.13;;;7.20;;
54263;SDS011;40178;53.042;6.406;2023-02-28T08:10:36;15.80;;;7.70;;
54263;SDS011;40178;53.042;6.406;2023-02-28T08:13:02;17.02;;;7.90;;
54263;SDS011;40178;53.042;6.406;2023-02-28T08:15:28;13.88;;;6.72;;
54263;SDS011;40178;53.042;6.406;2023-02-28T08:17:53;15.18;;;7.25;;
54263;SDS011;40178;53.042;6.406;2023-02-28T08:20:21;16.08;;;7.35;;
54263;SDS011;40178;53.042;6.406;2023-02-28T08:22:47;13.52;;;7.20;;
54263;SDS011;40178;53.042;6.406;2023-02-28T08:25:12;16.55;;;7.50;;
54263;SDS011;40178;53.042;6.406;2023-02-28T08:27:38;17.92;;;7.95;;
54263;SDS011;40178;53.042;6.406;2023-02-28T08:30:04;17.40;;;8.13;;
54263;SDS011;40178;53.042;6.406;2023-02-28T08:32:31;17.38;;;7.85;;
54263;SDS011;40178;53.042;6.406;2023-02-28T08:34:58;14.50;;;7.72;;
54263;SDS011;40178;53.042;6.406;2023-02-28T08:37:24;16.98;;;7.80;;
54263;SDS011;40178;53.042;6.406;2023-02-28T08:39:49;15.90;;;7.45;;
54263;SDS011;40178;53.042;6.406;2023-02-28T08:42:15;16.75;;;7.20;;
54263;SDS011;40178;53.042;6.406;2023-02-28T08:44:41;17.55;;;7.68;;
54263;SDS011;40178;53.042;6.406;2023-02-28T08:47:06;16.20;;;8.40;;
54263;SDS011;40178;53.042;6.406;2023-02-28T08:49:32;18.88;;;9.25;;
54263;SDS011;40178;53.042;6.406;2023-02-28T08:51:57;17.60;;;7.95;;
54263;SDS011;40178;53.042;6.406;2023-02-28T08:54:23;18.35;;;9.43;;
54263;SDS011;40178;53.042;6.406;2023-02-28T08:56:49;16.65;;;9.88;;
54263;SDS011;40178;53.042;6.406;2023-02-28T08:59:15;18.58;;;9.57;;
54263;SDS011;40178;53.042;6.406;2023-02-28T09:01:41;13.90;;;7.97;;
54263;SDS011;40178;53.042;6.406;2023-02-28T09:04:08;16.05;;;8.80;;
54263;SDS011;40178;53.042;6.406;2023-02-28T09:06:35;20.60;;;9.25;;
54263;SDS011;40178;53.042;6.406;2023-02-28T09:09:01;15.65;;;8.75;;
54263;SDS011;40178;53.042;6.406;2023-02-28T09:11:29;18.17;;;9.25;;
54263;SDS011;40178;53.042;6.406;2023-02-28T09:13:54;17.42;;;9.35;;
54263;SDS011;40178;53.042;6.406;2023-02-28T09:16:20;19.85;;;10.00;;
54263;SDS011;40178;53.042;6.406;2023-02-28T09:18:46;16.52;;;8.73;;
54263;SDS011;40178;53.042;6.406;2023-02-28T09:21:13;15.00;;;8.55;;
54263;SDS011;40178;53.042;6.406;2023-02-28T09:23:41;17.65;;;8.63;;
54263;SDS011;40178;53.042;6.406;2023-02-28T09:26:11;15.10;;;9.23;;
54263;SDS011;40178;53.042;6.406;2023-02-28T09:28:39;17.45;;;9.13;;
54263;SDS011;40178;53.042;6.406;2023-02-28T09:31:05;15.90;;;8.55;;
54263;SDS011;40178;53.042;6.406;2023-02-28T09:33:30;14.82;;;8.07;;
54263;SDS011;40178;53.042;6.406;2023-02-28T09:36:00;16.55;;;9.30;;
54263;SDS011;40178;53.042;6.406;2023-02-28T09:38:27;15.13;;;8.82;;
54263;SDS011;40178;53.042;6.406;2023-02-28T09:40:54;20.88;;;9.10;;
54263;SDS011;40178;53.042;6.406;2023-02-28T09:43:22;14.88;;;7.80;;
54263;SDS011;40178;53.042;6.406;2023-02-28T09:45:52;13.30;;;7.30;;
54263;SDS011;40178;53.042;6.406;2023-02-28T09:48:41;12.60;;;6.90;;
54263;SDS011;40178;53.042;6.406;2023-02-28T09:54:18;10.77;;;6.38;;
54263;SDS011;40178;53.042;6.406;2023-02-28T09:56:47;14.35;;;6.78;;
54263;SDS011;40178;53.042;6.406;2023-02-28T09:59:44;12.32;;;6.53;;
54263;SDS011;40178;53.042;6.406;2023-02-28T10:02:36;14.70;;;6.88;;
54263;SDS011;40178;53.042;6.406;2023-02-28T10:05:26;11.05;;;6.15;;
54263;SDS011;40178;53.042;6.406;2023-02-28T10:11:12;11.80;;;5.80;;
54263;SDS011;40178;53.042;6.406;2023-02-28T10:16:25;18.25;;;6.22;;
54263;SDS011;40178;53.042;6.406;2023-02-28T10:19:11;9.73;;;5.28;;
54263;SDS011;40178;53.042;6.406;2023-02-28T10:25:15;8.57;;;4.63;;
54263;SDS011;40178;53.042;6.406;2023-02-28T10:27:46;11.23;;;4.57;;
54263;SDS011;40178;53.042;6.406;2023-02-28T10:30:11;6.60;;;2.95;;
54263;SDS011;40178;53.042;6.406;2023-02-28T10:32:43;7.75;;;3.05;;
54263;SDS011;40178;53.042;6.406;2023-02-28T10:35:17;7.25;;;3.78;;
54263;SDS011;40178;53.042;6.406;2023-02-28T10:37:46;8.90;;;3.20;;
54263;SDS011;40178;53.042;6.406;2023-02-28T10:45:30;7.22;;;3.17;;
54263;SDS011;40178;53.042;6.406;2023-02-28T10:53:16;4.82;;;2.20;;
54263;SDS011;40178;53.042;6.406;2023-02-28T10:55:42;7.83;;;2.77;;
54263;SDS011;40178;53.042;6.406;2023-02-28T10:58:20;6.97;;;2.60;;
54263;SDS011;40178;53.042;6.406;2023-02-28T11:00:50;5.70;;;2.75;;
54263;SDS011;40178;53.042;6.406;2023-02-28T11:03:30;5.05;;;2.00;;
54263;SDS011;40178;53.042;6.406;2023-02-28T11:05:59;6.88;;;2.63;;
54263;SDS011;40178;53.042;6.406;2023-02-28T11:08:31;5.75;;;2.60;;
54263;SDS011;40178;53.042;6.406;2023-02-28T11:10:58;5.03;;;2.38;;
54263;SDS011;40178;53.042;6.406;2023-02-28T11:13:35;5.20;;;2.28;;
54263;SDS011;40178;53.042;6.406;2023-02-28T11:16:04;6.18;;;2.17;;
54263;SDS011;40178;53.042;6.406;2023-02-28T11:21:04;5.07;;;2.10;;
54263;SDS011;40178;53.042;6.406;2023-02-28T11:23:30;5.10;;;2.40;;
54263;SDS011;40178;53.042;6.406;2023-02-28T11:26:00;9.15;;;3.08;;
54263;SDS011;40178;53.042;6.406;2023-02-28T11:28:28;5.95;;;2.50;;
54263;SDS011;40178;53.042;6.406;2023-02-28T11:33:49;7.32;;;2.90;;
54263;SDS011;40178;53.042;6.406;2023-02-28T11:36:18;6.88;;;3.20;;
54263;SDS011;40178;53.042;6.406;2023-02-28T11:53:39;7.07;;;3.28;;
54263;SDS011;40178;53.042;6.406;2023-02-28T12:04:54;6.43;;;3.20;;
54263;SDS011;40178;53.042;6.406;2023-02-28T12:10:21;7.57;;;3.50;;
54263;SDS011;40178;53.042;6.406;2023-02-28T12:26:47;6.75;;;3.28;;
54263;SDS011;40178;53.042;6.406;2023-02-28T12:29:19;8.93;;;4.43;;
54263;SDS011;40178;53.042;6.406;2023-02-28T12:34:51;7.88;;;4.00;;
54263;SDS011;40178;53.042;6.406;2023-02-28T12:37:25;7.53;;;3.47;;
54263;SDS011;40178;53.042;6.406;2023-02-28T12:40:00;8.48;;;3.67;;
54263;SDS011;40178;53.042;6.406;2023-02-28T12:42:34;7.55;;;3.63;;
54263;SDS011;40178;53.042;6.406;2023-02-28T12:47:35;7.68;;;3.97;;
54263;SDS011;40178;53.042;6.406;2023-02-28T12:50:06;9.02;;;4.68;;
54263;SDS011;40178;53.042;6.406;2023-02-28T13:00:46;6.85;;;4.07;;
54263;SDS011;40178;53.042;6.406;2023-02-28T13:09:28;8.50;;;4.28;;
54263;SDS011;40178;53.042;6.406;2023-02-28T13:11:54;8.10;;;4.60;;
54263;SDS011;40178;53.042;6.406;2023-02-28T13:19:33;8.20;;;4.00;;
54263;SDS011;40178;53.042;6.406;2023-02-28T13:22:01;8.60;;;4.43;;
54263;SDS011;40178;53.042;6.406;2023-02-28T13:24:39;9.60;;;4.40;;
54263;SDS011;40178;53.042;6.406;2023-02-28T13:33:36;8.18;;;3.95;;
54263;SDS011;40178;53.042;6.406;2023-02-28T13:36:26;7.72;;;4.10;;
54263;SDS011;40178;53.042;6.406;2023-02-28T13:38:57;6.63;;;3.42;;
54263;SDS011;40178;53.042;6.406;2023-02-28T13:44:09;8.88;;;4.18;;
54263;SDS011;40178;53.042;6.406;2023-02-28T14:03:07;9.40;;;4.30;;
54263;SDS011;40178;53.042;6.406;2023-02-28T14:05:35;9.52;;;4.35;;
54263;SDS011;40178;53.042;6.406;2023-02-28T14:08:06;11.07;;;4.90;;
54263;SDS011;40178;53.042;6.406;2023-02-28T14:11:01;7.40;;;4.20;;
54263;SDS011;40178;53.042;6.406;2023-02-28T14:13:43;8.70;;;4.65;;
54263;SDS011;40178;53.042;6.406;2023-02-28T14:16:15;9.10;;;4.18;;
54263;SDS011;40178;53.042;6.406;2023-02-28T14:21:32;8.40;;;4.10;;
54263;SDS011;40178;53.042;6.406;2023-02-28T14:37:59;8.55;;;4.68;;
54263;SDS011;40178;53.042;6.406;2023-02-28T14:40:39;9.57;;;4.65;;
54263;SDS011;40178;53.042;6.406;2023-02-28T14:43:06;10.23;;;4.43;;
54263;SDS011;40178;53.042;6.406;2023-02-28T14:45:48;7.95;;;4.47;;
54263;SDS011;40178;53.042;6.406;2023-02-28T14:48:20;11.88;;;5.07;;
54263;SDS011;40178;53.042;6.406;2023-02-28T14:50:57;8.70;;;4.22;;
54263;SDS011;40178;53.042;6.406;2023-02-28T14:53:25;8.63;;;4.22;;
54263;SDS011;40178;53.042;6.406;2023-02-28T14:55:55;8.70;;;4.10;;
54263;SDS011;40178;53.042;6.406;2023-02-28T14:58:30;7.30;;;4.05;;
54263;SDS011;40178;53.042;6.406;2023-02-28T15:00:58;10.60;;;4.57;;
54263;SDS011;40178;53.042;6.406;2023-02-28T15:05:59;8.43;;;4.40;;
54263;SDS011;40178;53.042;6.406;2023-02-28T15:08:27;7.88;;;4.07;;
54263;SDS011;40178;53.042;6.406;2023-02-28T15:10:58;6.78;;;3.70;;
54263;SDS011;40178;53.042;6.406;2023-02-28T15:13:30;8.48;;;4.60;;
54263;SDS011;40178;53.042;6.406;2023-02-28T15:16:06;7.85;;;4.55;;
54263;SDS011;40178;53.042;6.406;2023-02-28T15:18:40;7.05;;;4.05;;
54263;SDS011;40178;53.042;6.406;2023-02-28T15:21:18;8.88;;;4.32;;
54263;SDS011;40178;53.042;6.406;2023-02-28T15:23:55;9.90;;;4.90;;
54263;SDS011;40178;53.042;6.406;2023-02-28T15:26:30;8.82;;;5.10;;
54263;SDS011;40178;53.042;6.406;2023-02-28T15:28:59;8.32;;;4.45;;
54263;SDS011;40178;53.042;6.406;2023-02-28T15:31:34;9.20;;;4.53;;
54263;SDS011;40178;53.042;6.406;2023-02-28T15:34:06;7.60;;;4.25;;
54263;SDS011;40178;53.042;6.406;2023-02-28T15:36:40;8.57;;;4.65;;
54263;SDS011;40178;53.042;6.406;2023-02-28T15:39:28;10.23;;;4.65;;
54263;SDS011;40178;53.042;6.406;2023-02-28T15:42:12;9.07;;;4.88;;
54263;SDS011;40178;53.042;6.406;2023-02-28T15:44:44;10.20;;;5.00;;
54263;SDS011;40178;53.042;6.406;2023-02-28T15:47:19;8.10;;;4.53;;
54263;SDS011;40178;53.042;6.406;2023-02-28T15:49:55;8.88;;;4.25;;
54263;SDS011;40178;53.042;6.406;2023-02-28T15:52:29;9.57;;;4.68;;
54263;SDS011;40178;53.042;6.406;2023-02-28T15:55:16;9.20;;;5.00;;
54263;SDS011;40178;53.042;6.406;2023-02-28T15:57:43;8.80;;;4.68;;
54263;SDS011;40178;53.042;6.406;2023-02-28T16:00:12;11.43;;;5.18;;
54263;SDS011;40178;53.042;6.406;2023-02-28T16:02:40;12.07;;;5.32;;
54263;SDS011;40178;53.042;6.406;2023-02-28T16:07:38;9.23;;;5.13;;
54263;SDS011;40178;53.042;6.406;2023-02-28T16:10:06;8.48;;;4.50;;
54263;SDS011;40178;53.042;6.406;2023-02-28T16:12:33;8.68;;;4.70;;
54263;SDS011;40178;53.042;6.406;2023-02-28T16:15:01;9.00;;;4.38;;
54263;SDS011;40178;53.042;6.406;2023-02-28T16:17:33;9.75;;;4.68;;
54263;SDS011;40178;53.042;6.406;2023-02-28T16:20:00;9.07;;;4.72;;
54263;SDS011;40178;53.042;6.406;2023-02-28T16:22:26;9.70;;;4.55;;
54263;SDS011;40178;53.042;6.406;2023-02-28T16:24:52;8.25;;;4.80;;
54263;SDS011;40178;53.042;6.406;2023-02-28T16:27:24;13.27;;;5.22;;
54263;SDS011;40178;53.042;6.406;2023-02-28T16:29:54;7.63;;;4.57;;
54263;SDS011;40178;53.042;6.406;2023-02-28T16:32:20;11.38;;;4.50;;
54263;SDS011;40178;53.042;6.406;2023-02-28T16:34:46;10.07;;;5.00;;
54263;SDS011;40178;53.042;6.406;2023-02-28T16:37:13;9.80;;;5.25;;
54263;SDS011;40178;53.042;6.406;2023-02-28T16:39:41;10.13;;;5.03;;
54263;SDS011;40178;53.042;6.406;2023-02-28T16:42:09;10.07;;;5.00;;
54263;SDS011;40178;53.042;6.406;2023-02-28T16:44:55;11.07;;;5.38;;
54263;SDS011;40178;53.042;6.406;2023-02-28T16:47:22;12.02;;;5.35;;
54263;SDS011;40178;53.042;6.406;2023-02-28T16:49:49;10.02;;;5.00;;
54263;SDS011;40178;53.042;6.406;2023-02-28T16:52:14;9.50;;;6.00;;
54263;SDS011;40178;53.042;6.406;2023-02-28T16:54:40;10.43;;;5.35;;
54263;SDS011;40178;53.042;6.406;2023-02-28T16:57:08;9.65;;;5.38;;
54263;SDS011;40178;53.042;6.406;2023-02-28T16:59:46;10.25;;;5.53;;
54263;SDS011;40178;53.042;6.406;2023-02-28T17:02:14;12.50;;;6.38;;
54263;SDS011;40178;53.042;6.406;2023-02-28T17:04:41;10.50;;;5.43;;
54263;SDS011;40178;53.042;6.406;2023-02-28T17:07:11;9.00;;;5.53;;
54263;SDS011;40178;53.042;6.406;2023-02-28T17:09:39;8.52;;;5.70;;
54263;SDS011;40178;53.042;6.406;2023-02-28T17:12:05;12.50;;;6.43;;
54263;SDS011;40178;53.042;6.406;2023-02-28T17:14:31;10.48;;;6.00;;
54263;SDS011;40178;53.042;6.406;2023-02-28T17:16:57;12.88;;;6.03;;
54263;SDS011;40178;53.042;6.406;2023-02-28T17:19:22;8.52;;;4.82;;
54263;SDS011;40178;53.042;6.406;2023-02-28T17:21:48;10.90;;;5.65;;
54263;SDS011;40178;53.042;6.406;2023-02-28T17:24:14;12.55;;;5.97;;
54263;SDS011;40178;53.042;6.406;2023-02-28T17:26:40;11.52;;;5.30;;
54263;SDS011;40178;53.042;6.406;2023-02-28T17:29:13;9.27;;;5.60;;
54263;SDS011;40178;53.042;6.406;2023-02-28T17:31:41;13.15;;;5.53;;
54263;SDS011;40178;53.042;6.406;2023-02-28T17:34:06;12.82;;;5.70;;
54263;SDS011;40178;53.042;6.406;2023-02-28T17:36:32;11.32;;;5.90;;
54263;SDS011;40178;53.042;6.406;2023-02-28T17:38:59;13.50;;;5.85;;